Time;durP1;ratioP1;P1;durP2;ratioP2;P2;SDS_P1;SDS_P2;PMS_P1;PMS_P2;Temp;Humidity;BMP_temperature;BMP_pressure;BME280_temperature;BME280_humidity;BME280_pressure;Samples;Min_cycle;Max_cycle;Signal;HPM_P1;HPM_P2
2023/09/26 00:00:31;;;;;;;10.10;5.90;;;13.50;75.40;;;;;;5087757;28;20484;-79
2023/09/26 00:03:00;;;;;;;7.93;5.03;;;13.50;75.30;;;;;;5105829;28;20955;-78
2023/09/26 00:05:28;;;;;;;8.37;6.07;;;13.50;75.50;;;;;;5111395;28;20544;-80
2023/09/26 00:07:57;;;;;;;8.37;5.10;;;13.50;75.40;;;;;;5112708;28;20958;-80
2023/09/26 00:10:25;;;;;;;10.80;5.70;;;13.40;75.40;;;;;;5107954;28;20477;-79
2023/09/26 00:12:54;;;;;;;9.47;5.77;;;13.40;75.40;;;;;;5107283;28;20801;-80
2023/09/26 00:15:22;;;;;;;10.00;6.27;;;13.30;75.50;;;;;;5104696;28;20439;-80
2023/09/26 00:17:51;;;;;;;14.00;5.70;;;13.30;75.50;;;;;;5107059;28;20933;-79
2023/09/26 00:20:23;;;;;;;9.33;5.50;;;13.20;75.80;;;;;;5111815;28;20438;-79
2023/09/26 00:22:51;;;;;;;11.03;6.23;;;13.20;75.90;;;;;;5089770;28;20446;-78
2023/09/26 00:25:21;;;;;;;9.57;5.60;;;13.20;75.90;;;;;;5110433;28;20460;-79
2023/09/26 00:27:49;;;;;;;8.47;5.80;;;13.20;76.00;;;;;;5109208;28;20486;-80
2023/09/26 00:30:18;;;;;;;8.97;5.47;;;13.20;76.10;;;;;;5110512;28;20996;-79
2023/09/26 00:32:46;;;;;;;8.90;6.10;;;13.20;76.10;;;;;;5089824;28;20455;-79
2023/09/26 00:35:14;;;;;;;7.93;4.70;;;13.30;76.30;;;;;;5098347;28;20547;-79
2023/09/26 00:37:49;;;;;;;9.20;5.73;;;13.30;76.20;;;;;;5106547;28;21017;-79
2023/09/26 00:40:22;;;;;;;8.50;5.90;;;13.30;76.20;;;;;;5088549;28;20456;-80
2023/09/26 00:42:51;;;;;;;9.53;6.13;;;13.30;76.10;;;;;;5110468;28;20449;-80
2023/09/26 00:45:19;;;;;;;8.20;5.90;;;13.30;76.10;;;;;;5091212;28;20495;-77
2023/09/26 00:47:49;;;;;;;13.07;6.20;;;13.30;76.30;;;;;;5092406;28;20485;-78
2023/09/26 00:50:18;;;;;;;9.53;5.90;;;13.30;76.20;;;;;;5090188;28;20473;-78
2023/09/26 00:52:47;;;;;;;9.50;5.67;;;13.30;76.30;;;;;;5089440;28;20453;-79
2023/09/26 00:55:20;;;;;;;8.17;5.10;;;13.30;76.30;;;;;;5088092;28;20441;-79
2023/09/26 00:57:51;;;;;;;10.90;5.63;;;13.30;76.30;;;;;;5087434;28;20531;-80
2023/09/26 01:00:20;;;;;;;8.90;4.90;;;13.30;76.30;;;;;;5087442;28;20469;-79
2023/09/26 01:02:48;;;;;;;10.33;6.07;;;13.30;76.10;;;;;;5104166;28;20453;-79
2023/09/26 01:05:17;;;;;;;9.10;5.47;;;13.30;76.00;;;;;;5089626;28;20458;-79
2023/09/26 01:07:46;;;;;;;9.70;5.90;;;13.30;76.10;;;;;;5093152;28;20452;-79
2023/09/26 01:10:14;;;;;;;7.70;5.90;;;13.20;76.00;;;;;;5110494;28;20484;-79
2023/09/26 01:12:43;;;;;;;7.40;5.90;;;13.20;76.00;;;;;;5092084;28;20545;-79
2023/09/26 01:15:13;;;;;;;10.50;6.97;;;13.10;76.00;;;;;;5105207;28;20448;-79
2023/09/26 01:17:41;;;;;;;10.33;6.20;;;13.10;76.20;;;;;;5107453;28;20528;-79
2023/09/26 01:20:14;;;;;;;11.03;5.77;;;13.10;76.30;;;;;;5089956;28;20814;-79
2023/09/26 01:22:46;;;;;;;8.97;6.00;;;13.10;76.30;;;;;;5108723;28;20538;-79
2023/09/26 01:25:17;;;;;;;11.17;5.87;;;13.10;76.20;;;;;;5108099;28;20454;-79
2023/09/26 01:27:46;;;;;;;11.30;6.63;;;13.10;76.10;;;;;;5109788;28;20456;-79
2023/09/26 01:30:16;;;;;;;10.53;6.03;;;13.10;76.00;;;;;;5105291;28;21104;-79
2023/09/26 01:32:46;;;;;;;9.30;5.30;;;13.00;75.90;;;;;;5086651;28;20552;-80
2023/09/26 01:35:14;;;;;;;8.60;6.00;;;13.00;76.00;;;;;;5102155;28;20452;-79
2023/09/26 01:37:43;;;;;;;9.60;6.60;;;13.00;76.10;;;;;;5089593;28;20983;-79
2023/09/26 01:40:12;;;;;;;11.80;5.80;;;12.90;76.10;;;;;;5109172;28;20939;-79
2023/09/26 01:42:42;;;;;;;16.30;6.70;;;13.00;76.10;;;;;;5105516;28;20456;-79
2023/09/26 01:45:10;;;;;;;9.53;6.03;;;12.90;76.10;;;;;;5088035;28;20654;-79
2023/09/26 01:47:43;;;;;;;8.50;6.30;;;12.90;76.10;;;;;;5102245;28;20481;-77
2023/09/26 01:50:13;;;;;;;8.80;6.40;;;12.90;76.00;;;;;;5107043;28;21056;-78
2023/09/26 01:52:41;;;;;;;9.67;6.20;;;12.80;76.00;;;;;;5111344;28;20974;-80
2023/09/26 01:55:14;;;;;;;11.20;6.43;;;12.70;76.10;;;;;;5110464;28;20471;-79
2023/09/26 01:57:43;;;;;;;8.50;5.77;;;12.70;76.30;;;;;;5089240;28;20453;-79
2023/09/26 02:00:12;;;;;;;10.73;6.70;;;12.70;76.40;;;;;;5090230;28;20531;-79
2023/09/26 02:02:41;;;;;;;11.10;6.30;;;12.70;76.50;;;;;;5090156;28;20510;-79
2023/09/26 02:05:10;;;;;;;8.57;5.77;;;12.70;76.40;;;;;;5082211;28;20458;-79
2023/09/26 02:07:38;;;;;;;9.60;5.50;;;12.70;76.40;;;;;;5084238;28;20544;-79
2023/09/26 02:10:10;;;;;;;8.60;5.83;;;12.70;76.50;;;;;;5098035;28;20978;-79
2023/09/26 02:12:39;;;;;;;8.87;5.57;;;12.70;76.50;;;;;;5086741;28;20484;-79
2023/09/26 02:15:12;;;;;;;9.30;7.07;;;12.70;76.50;;;;;;5099519;28;20489;-78
2023/09/26 02:17:40;;;;;;;10.40;6.67;;;12.70;76.50;;;;;;5101073;28;20937;-78
2023/09/26 02:20:12;;;;;;;11.83;6.73;;;12.70;76.30;;;;;;5082512;28;20937;-77
2023/09/26 02:22:42;;;;;;;9.80;6.47;;;12.60;76.10;;;;;;5086327;28;20495;-78
2023/09/26 02:25:19;;;;;;;9.50;6.90;;;12.60;76.20;;;;;;5085115;28;20961;-78
2023/09/26 02:27:49;;;;;;;10.03;6.07;;;12.50;76.40;;;;;;5085604;28;20461;-78
2023/09/26 02:30:20;;;;;;;10.03;6.37;;;12.50;76.40;;;;;;5088396;28;20465;-77
2023/09/26 02:32:48;;;;;;;9.73;6.57;;;12.40;76.40;;;;;;5088302;28;21044;-79
2023/09/26 02:35:19;;;;;;;10.67;7.23;;;12.40;76.40;;;;;;5084033;28;20495;-78
2023/09/26 02:37:47;;;;;;;10.47;7.43;;;12.30;76.40;;;;;;5086420;28;20557;-78
2023/09/26 02:40:17;;;;;;;9.27;6.50;;;12.30;76.50;;;;;;5087131;28;21339;-78
2023/09/26 02:42:45;;;;;;;12.00;7.17;;;12.30;76.60;;;;;;5098538;28;20465;-78
2023/09/26 02:45:14;;;;;;;9.80;6.53;;;12.40;76.70;;;;;;5085920;28;20791;-78
2023/09/26 02:47:44;;;;;;;12.80;7.33;;;12.40;76.80;;;;;;5097260;28;20504;-79
2023/09/26 02:50:13;;;;;;;9.07;6.90;;;12.40;76.80;;;;;;5097432;28;20496;-78
2023/09/26 02:52:42;;;;;;;10.30;6.93;;;12.40;76.80;;;;;;5084864;28;20453;-78
2023/09/26 02:55:11;;;;;;;10.90;6.97;;;12.40;76.80;;;;;;5086933;28;20622;-78
2023/09/26 02:57:40;;;;;;;10.03;6.10;;;12.40;76.80;;;;;;5085417;28;20472;-79
2023/09/26 03:00:16;;;;;;;10.93;6.73;;;12.40;76.90;;;;;;5083151;28;20449;-79
2023/09/26 03:02:47;;;;;;;10.17;6.33;;;12.50;77.00;;;;;;5095198;28;20460;-78
2023/09/26 03:05:17;;;;;;;8.87;6.27;;;12.50;76.90;;;;;;5088317;28;20949;-78
2023/09/26 03:07:50;;;;;;;8.87;5.27;;;12.50;76.90;;;;;;5085881;28;20540;-79
2023/09/26 03:10:18;;;;;;;8.77;6.03;;;12.50;76.80;;;;;;5101232;28;20547;-78
2023/09/26 03:12:48;;;;;;;11.33;6.43;;;12.50;76.70;;;;;;5081929;28;20453;-78
2023/09/26 03:15:17;;;;;;;9.30;6.93;;;12.50;76.60;;;;;;5085403;28;20585;-78
2023/09/26 03:17:47;;;;;;;9.00;6.07;;;12.50;76.50;;;;;;5078651;28;20939;-78
2023/09/26 03:20:16;;;;;;;9.40;6.73;;;12.40;76.50;;;;;;5084721;28;20461;-78
2023/09/26 03:22:46;;;;;;;9.07;6.00;;;12.40;76.60;;;;;;5093976;28;20461;-78
2023/09/26 03:25:14;;;;;;;19.33;6.93;;;12.40;76.60;;;;;;5084984;28;20454;-77
2023/09/26 03:27:47;;;;;;;9.93;6.10;;;12.40;76.60;;;;;;5085998;28;20947;-78
2023/09/26 03:30:16;;;;;;;9.47;5.80;;;12.40;76.40;;;;;;5087467;28;20449;-78
2023/09/26 03:32:44;;;;;;;9.50;5.60;;;12.40;76.20;;;;;;5089478;28;20482;-78
2023/09/26 03:35:14;;;;;;;9.63;6.27;;;12.30;76.20;;;;;;5101816;28;20820;-79
2023/09/26 03:37:42;;;;;;;9.50;5.30;;;12.20;76.30;;;;;;5108765;28;20541;-79
2023/09/26 03:40:11;;;;;;;9.10;6.33;;;12.20;76.40;;;;;;5105619;28;20468;-78
2023/09/26 03:42:40;;;;;;;7.67;5.23;;;12.20;76.30;;;;;;5108078;28;20819;-78
2023/09/26 03:45:09;;;;;;;10.10;5.80;;;12.20;76.30;;;;;;5102145;28;20475;-78
2023/09/26 03:47:37;;;;;;;9.37;7.00;;;12.20;76.30;;;;;;5105493;28;21239;-78
2023/09/26 03:50:06;;;;;;;12.70;6.80;;;12.20;76.30;;;;;;5106447;28;20471;-78
2023/09/26 03:52:36;;;;;;;11.63;7.33;;;12.20;76.20;;;;;;5105495;28;20813;-78
2023/09/26 03:55:04;;;;;;;13.43;7.83;;;12.20;76.40;;;;;;5107146;28;20937;-78
2023/09/26 03:57:32;;;;;;;10.70;6.77;;;12.20;76.50;;;;;;5088453;28;20543;-79
2023/09/26 04:00:00;;;;;;;9.83;6.80;;;12.20;76.50;;;;;;5089645;28;20992;-79
2023/09/26 04:02:38;;;;;;;10.33;6.90;;;12.20;76.60;;;;;;5083842;28;20465;-79
2023/09/26 04:05:07;;;;;;;12.10;6.60;;;12.20;76.40;;;;;;5083430;28;21119;-79
2023/09/26 04:07:37;;;;;;;11.40;7.33;;;12.20;76.40;;;;;;5082212;28;20591;-79
2023/09/26 04:10:08;;;;;;;10.97;7.57;;;12.20;76.40;;;;;;5097359;28;20461;-78
2023/09/26 04:12:36;;;;;;;9.97;7.47;;;12.20;76.40;;;;;;5090741;28;20486;-78
2023/09/26 04:15:05;;;;;;;11.80;7.90;;;12.10;76.40;;;;;;5091541;28;20460;-79
2023/09/26 04:17:33;;;;;;;14.23;8.10;;;12.00;76.30;;;;;;5088771;28;20557;-79
2023/09/26 04:20:01;;;;;;;12.20;7.30;;;12.00;76.40;;;;;;5081887;28;20462;-80
2023/09/26 04:22:29;;;;;;;9.10;6.60;;;12.00;76.60;;;;;;5087997;28;20485;-79
2023/09/26 04:24:58;;;;;;;10.07;7.17;;;11.90;76.60;;;;;;5088035;28;20943;-79
2023/09/26 04:27:26;;;;;;;11.43;6.77;;;11.90;76.80;;;;;;5083088;28;20511;-79
2023/09/26 04:29:54;;;;;;;13.53;7.63;;;12.00;76.80;;;;;;5085832;28;20535;-78
2023/09/26 04:32:22;;;;;;;10.27;6.57;;;12.00;76.80;;;;;;5108091;28;20503;-78
2023/09/26 04:34:50;;;;;;;11.20;6.53;;;12.00;76.90;;;;;;5105798;28;20891;-78
2023/09/26 04:37:19;;;;;;;9.47;6.23;;;12.10;76.90;;;;;;5110771;28;20538;-78
2023/09/26 04:39:48;;;;;;;9.13;6.13;;;12.10;76.80;;;;;;5109640;28;20466;-79
2023/09/26 04:42:17;;;;;;;8.77;5.97;;;12.10;76.80;;;;;;5091184;28;20458;-78
2023/09/26 04:44:45;;;;;;;9.90;6.47;;;12.10;76.70;;;;;;5111688;28;20578;-79
2023/09/26 04:47:13;;;;;;;8.60;6.40;;;12.10;76.60;;;;;;5110438;28;20506;-78
2023/09/26 04:49:41;;;;;;;10.37;8.00;;;12.10;76.50;;;;;;5108230;28;20456;-78
2023/09/26 04:52:10;;;;;;;10.40;7.10;;;12.10;76.30;;;;;;5114047;28;20482;-78
2023/09/26 04:54:38;;;;;;;10.93;7.93;;;12.00;76.30;;;;;;5105857;28;21147;-78
2023/09/26 04:57:07;;;;;;;10.50;7.37;;;12.00;76.20;;;;;;5105924;28;20476;-78
2023/09/26 04:59:36;;;;;;;21.43;8.53;;;11.90;76.20;;;;;;5102225;28;20478;-78
2023/09/26 05:02:05;;;;;;;11.40;7.33;;;11.90;76.20;;;;;;5087888;28;20470;-77
2023/09/26 05:04:33;;;;;;;13.17;8.03;;;11.80;76.20;;;;;;5088671;28;20457;-78
2023/09/26 05:07:02;;;;;;;14.63;8.63;;;11.80;76.30;;;;;;5090618;28;20478;-75
2023/09/26 05:09:30;;;;;;;15.63;7.30;;;11.80;76.40;;;;;;5075623;28;20452;-78
2023/09/26 05:11:58;;;;;;;11.90;8.97;;;11.80;76.40;;;;;;5088729;28;20474;-78
2023/09/26 05:14:25;;;;;;;15.17;9.70;;;11.80;76.30;;;;;;5084594;28;20455;-78
2023/09/26 05:16:55;;;;;;;15.30;11.20;;;11.70;76.30;;;;;;5083465;28;20492;-78
2023/09/26 05:19:23;;;;;;;13.50;10.27;;;11.70;76.30;;;;;;5089254;28;20460;-78
2023/09/26 05:21:52;;;;;;;14.10;10.33;;;11.70;76.30;;;;;;5070431;28;20951;-78
2023/09/26 05:24:22;;;;;;;14.50;9.20;;;11.70;76.30;;;;;;5085353;28;20454;-78
2023/09/26 05:26:52;;;;;;;9.97;7.83;;;11.70;76.40;;;;;;5087943;28;20457;-78
2023/09/26 05:29:20;;;;;;;12.53;8.70;;;11.70;76.40;;;;;;5079459;28;20490;-79
2023/09/26 05:31:48;;;;;;;13.53;9.30;;;11.70;76.40;;;;;;5103830;28;20467;-78
2023/09/26 05:34:17;;;;;;;14.63;8.67;;;11.70;76.40;;;;;;5107264;28;20475;-79
2023/09/26 05:36:46;;;;;;;12.67;8.83;;;11.70;76.50;;;;;;5105904;28;20456;-79
2023/09/26 05:39:14;;;;;;;15.87;9.10;;;11.70;76.40;;;;;;5106033;28;20455;-79
2023/09/26 05:41:41;;;;;;;10.67;7.23;;;11.70;76.30;;;;;;5106631;28;20478;-79
2023/09/26 05:44:12;;;;;;;12.57;8.67;;;11.70;76.40;;;;;;5090773;28;20876;-79
2023/09/26 05:46:40;;;;;;;11.17;8.30;;;11.70;76.50;;;;;;5108355;28;21017;-79
2023/09/26 05:49:08;;;;;;;12.17;8.20;;;11.70;76.50;;;;;;5103087;28;20810;-79
2023/09/26 05:51:37;;;;;;;14.60;8.60;;;11.70;76.40;;;;;;5106006;28;20488;-79
2023/09/26 05:54:05;;;;;;;10.30;7.60;;;11.70;76.40;;;;;;5109667;28;20467;-80
2023/09/26 05:56:52;;;;;;;12.37;8.53;;;11.70;76.40;;;;;;5085494;28;20986;-79
2023/09/26 05:59:20;;;;;;;14.73;9.13;;;11.70;76.50;;;;;;5108216;28;20443;-79
2023/09/26 06:01:48;;;;;;;13.17;9.23;;;11.80;76.60;;;;;;5085243;28;20477;-79
2023/09/26 06:04:17;;;;;;;11.77;8.50;;;11.80;76.50;;;;;;5108034;28;20444;-80
2023/09/26 06:06:47;;;;;;;13.63;8.80;;;11.80;76.50;;;;;;5103958;28;20455;-79
2023/09/26 06:09:15;;;;;;;15.30;9.53;;;11.80;76.60;;;;;;5106987;28;20540;-80
2023/09/26 06:11:43;;;;;;;15.47;8.40;;;11.80;76.60;;;;;;5108176;28;20460;-79
2023/09/26 06:14:11;;;;;;;11.70;8.10;;;11.90;76.60;;;;;;5104679;28;20505;-80
2023/09/26 06:16:39;;;;;;;14.03;10.23;;;11.90;76.70;;;;;;5109247;28;20432;-79
2023/09/26 06:19:08;;;;;;;13.97;9.03;;;11.90;76.70;;;;;;5091734;28;20440;-79
2023/09/26 06:21:36;;;;;;;13.23;9.73;;;12.00;76.80;;;;;;5109914;28;20457;-79
2023/09/26 06:24:06;;;;;;;14.40;10.10;;;12.00;76.90;;;;;;5107211;28;20543;-79
2023/09/26 06:26:34;;;;;;;14.43;10.50;;;12.10;76.90;;;;;;5106119;28;20451;-79
2023/09/26 06:29:02;;;;;;;15.30;10.77;;;12.10;76.90;;;;;;5107363;28;20448;-79
2023/09/26 06:31:30;;;;;;;16.33;11.27;;;12.10;76.90;;;;;;5109157;28;21008;-80
2023/09/26 06:34:00;;;;;;;15.87;11.07;;;12.10;76.90;;;;;;5105072;28;20483;-79
2023/09/26 06:36:30;;;;;;;15.63;10.60;;;12.10;77.10;;;;;;5108815;28;20801;-79
2023/09/26 06:38:58;;;;;;;15.10;11.07;;;12.20;77.10;;;;;;5091252;28;20448;-79
2023/09/26 06:41:27;;;;;;;14.67;10.80;;;12.20;77.00;;;;;;5092233;28;20508;-78
2023/09/26 06:43:56;;;;;;;14.30;10.43;;;12.20;77.20;;;;;;5108896;28;20464;-80
2023/09/26 06:46:24;;;;;;;16.30;10.53;;;12.20;77.40;;;;;;5110035;28;20451;-79
2023/09/26 06:48:53;;;;;;;14.53;9.93;;;12.30;77.70;;;;;;5105629;28;20455;-79
2023/09/26 06:51:21;;;;;;;13.20;9.67;;;12.30;77.70;;;;;;5103616;28;20469;-79
2023/09/26 06:53:49;;;;;;;16.07;11.60;;;12.40;77.70;;;;;;5101125;28;20530;-79
2023/09/26 06:56:17;;;;;;;17.67;12.40;;;12.40;77.70;;;;;;5090560;28;20552;-80
2023/09/26 06:58:47;;;;;;;14.73;10.90;;;12.50;77.80;;;;;;5105126;28;20505;-79
2023/09/26 07:01:18;;;;;;;16.57;11.20;;;12.50;77.80;;;;;;5090665;28;20900;-79
2023/09/26 07:03:47;;;;;;;16.10;11.13;;;12.60;77.90;;;;;;5111106;28;22735;-81
2023/09/26 07:06:16;;;;;;;15.50;11.63;;;12.60;78.00;;;;;;5086007;28;20538;-79
2023/09/26 07:08:44;;;;;;;15.77;10.90;;;12.70;78.10;;;;;;5104583;28;20466;-80
2023/09/26 07:11:13;;;;;;;16.43;11.00;;;12.70;78.20;;;;;;5085486;28;20466;-79
2023/09/26 07:13:41;;;;;;;14.07;11.13;;;12.80;78.30;;;;;;5105097;28;20488;-79
2023/09/26 07:16:24;;;;;;;17.80;10.60;;;12.80;78.40;;;;;;5099544;28;20453;-80
2023/09/26 07:18:53;;;;;;;13.87;10.30;;;12.90;78.50;;;;;;5104645;28;20512;-79
2023/09/26 07:21:21;;;;;;;14.30;10.77;;;12.90;78.60;;;;;;5102502;28;20509;-79
2023/09/26 07:23:49;;;;;;;11.93;8.93;;;13.00;78.80;;;;;;5105646;28;20468;-79
2023/09/26 07:26:20;;;;;;;11.13;7.70;;;13.00;78.90;;;;;;5101445;28;20452;-79
2023/09/26 07:28:49;;;;;;;11.07;8.47;;;13.00;79.00;;;;;;5098725;28;20460;-78
2023/09/26 07:31:19;;;;;;;12.40;8.57;;;13.10;79.00;;;;;;5091308;28;21111;-78
2023/09/26 07:33:50;;;;;;;13.60;8.60;;;13.10;79.10;;;;;;5100656;28;20561;-79
2023/09/26 07:36:18;;;;;;;12.60;9.33;;;13.20;79.30;;;;;;5101306;28;21105;-79
2023/09/26 07:38:46;;;;;;;11.20;8.93;;;13.20;79.40;;;;;;5103054;28;21034;-79
2023/09/26 07:41:14;;;;;;;13.03;9.10;;;13.30;79.50;;;;;;5089827;28;20893;-80
2023/09/26 07:43:42;;;;;;;14.20;10.13;;;13.40;79.60;;;;;;5106484;28;20466;-79
2023/09/26 07:46:11;;;;;;;16.13;9.93;;;13.40;79.70;;;;;;5111197;28;20465;-79
2023/09/26 07:48:39;;;;;;;12.57;9.93;;;13.50;79.80;;;;;;5089498;28;20447;-78
2023/09/26 07:51:10;;;;;;;17.50;9.27;;;13.50;79.90;;;;;;5111770;28;20542;-79
2023/09/26 07:53:42;;;;;;;16.10;9.33;;;13.60;80.00;;;;;;5101269;28;20493;-79
2023/09/26 07:56:11;;;;;;;12.10;9.70;;;13.60;80.00;;;;;;5111881;28;20450;-79
2023/09/26 07:58:39;;;;;;;11.50;9.77;;;13.70;80.10;;;;;;5103033;28;20512;-79
2023/09/26 08:01:09;;;;;;;10.33;7.93;;;13.70;80.10;;;;;;5103825;28;21095;-78
2023/09/26 08:03:38;;;;;;;11.63;8.67;;;13.80;80.10;;;;;;5112316;28;20454;-79
2023/09/26 08:06:09;;;;;;;11.40;8.47;;;13.80;80.20;;;;;;5094261;28;20461;-79
2023/09/26 08:08:38;;;;;;;13.43;10.00;;;13.90;80.20;;;;;;5107841;28;20454;-79
2023/09/26 08:11:08;;;;;;;12.30;9.47;;;13.90;80.30;;;;;;5103440;28;20466;-78
2023/09/26 08:13:38;;;;;;;11.53;9.37;;;14.00;80.40;;;;;;5108244;28;20482;-79
2023/09/26 08:16:06;;;;;;;13.10;9.50;;;14.10;80.40;;;;;;5115984;28;20446;-77
2023/09/26 08:18:34;;;;;;;12.63;9.40;;;14.10;80.50;;;;;;5093945;28;20462;-79
2023/09/26 08:21:02;;;;;;;12.70;9.10;;;14.20;80.50;;;;;;5109675;28;20545;-78
2023/09/26 08:23:32;;;;;;;13.00;8.97;;;14.20;80.60;;;;;;5110917;28;20440;-78
2023/09/26 08:26:01;;;;;;;12.00;8.80;;;14.20;80.70;;;;;;5111527;28;20448;-78
2023/09/26 08:28:30;;;;;;;13.53;8.77;;;14.30;80.90;;;;;;5111790;28;20450;-77
2023/09/26 08:31:05;;;;;;;13.13;8.83;;;14.40;80.90;;;;;;5112141;28;20641;-78
2023/09/26 08:33:34;;;;;;;12.83;9.07;;;14.40;81.10;;;;;;5112942;28;20515;-79
2023/09/26 08:36:02;;;;;;;15.87;9.57;;;14.50;81.00;;;;;;5112359;28;20534;-80
2023/09/26 08:38:31;;;;;;;13.37;9.13;;;14.50;81.10;;;;;;5093908;28;20459;-78
2023/09/26 08:41:00;;;;;;;14.97;10.07;;;14.60;81.30;;;;;;5109425;28;20455;-79
2023/09/26 08:43:28;;;;;;;12.60;9.60;;;14.70;81.30;;;;;;5111547;28;20558;-79
2023/09/26 08:45:57;;;;;;;12.90;9.40;;;14.70;81.50;;;;;;5103438;28;20451;-78
2023/09/26 08:48:25;;;;;;;14.40;10.03;;;14.70;81.60;;;;;;5111905;28;20533;-78
2023/09/26 08:50:53;;;;;;;14.90;10.60;;;14.80;81.80;;;;;;5110183;28;20470;-78
2023/09/26 08:53:21;;;;;;;12.50;9.13;;;14.80;81.90;;;;;;5110958;28;20451;-79
2023/09/26 08:55:50;;;;;;;11.90;8.60;;;14.80;82.10;;;;;;5104152;28;20446;-78
2023/09/26 08:58:25;;;;;;;11.67;9.17;;;14.90;82.10;;;;;;5109492;28;20807;-77
2023/09/26 09:00:53;;;;;;;11.20;8.47;;;14.90;82.30;;;;;;5083770;28;21023;-79
2023/09/26 09:03:21;;;;;;;13.13;8.97;;;15.00;82.20;;;;;;5086135;28;20465;-79
2023/09/26 09:05:49;;;;;;;11.73;8.90;;;15.00;82.20;;;;;;5088178;28;20993;-77
2023/09/26 09:08:19;;;;;;;12.53;9.20;;;15.10;82.20;;;;;;5091097;28;20447;-78
2023/09/26 09:10:52;;;;;;;13.83;8.50;;;15.20;82.10;;;;;;5091373;28;20456;-79
2023/09/26 09:13:29;;;;;;;12.83;9.60;;;15.20;82.10;;;;;;5072277;28;20449;-78
2023/09/26 09:16:11;;;;;;;10.60;8.57;;;15.30;82.20;;;;;;5088760;28;20488;-77
2023/09/26 09:18:43;;;;;;;11.00;8.87;;;15.40;82.20;;;;;;5088407;28;20457;-80
2023/09/26 09:21:26;;;;;;;11.80;9.03;;;15.40;82.20;;;;;;5072183;28;20453;-79
2023/09/26 09:23:55;;;;;;;11.40;8.50;;;15.50;82.30;;;;;;5088394;28;20449;-79
2023/09/26 09:26:32;;;;;;;10.73;8.47;;;15.60;82.40;;;;;;5085825;28;20542;-80
2023/09/26 09:29:17;;;;;;;13.93;8.50;;;15.60;82.40;;;;;;5089720;28;20497;-79
2023/09/26 09:31:45;;;;;;;10.60;8.47;;;15.70;82.50;;;;;;5103023;28;20478;-79
2023/09/26 09:34:15;;;;;;;11.53;8.37;;;15.80;82.40;;;;;;5109697;28;20471;-79
2023/09/26 09:36:44;;;;;;;11.80;8.90;;;15.80;82.30;;;;;;5108671;28;20455;-79
2023/09/26 09:39:13;;;;;;;12.50;8.33;;;15.90;82.30;;;;;;5088444;28;20908;-79
2023/09/26 09:41:42;;;;;;;19.53;9.10;;;16.00;82.50;;;;;;5109690;28;20478;-79
2023/09/26 09:44:10;;;;;;;12.07;8.57;;;16.10;82.50;;;;;;5110350;28;20455;-80
2023/09/26 09:46:39;;;;;;;10.67;8.40;;;16.10;82.60;;;;;;5111079;28;20440;-80
2023/09/26 09:49:10;;;;;;;10.47;8.23;;;16.20;82.60;;;;;;5107210;28;20497;-79
2023/09/26 09:51:42;;;;;;;15.37;9.80;;;16.30;82.50;;;;;;5107125;28;20455;-79
2023/09/26 09:54:13;;;;;;;12.40;8.77;;;16.40;82.60;;;;;;5106787;28;20444;-81
2023/09/26 09:56:46;;;;;;;12.17;8.30;;;16.40;82.60;;;;;;5106137;28;20472;-79
2023/09/26 09:59:16;;;;;;;11.23;8.30;;;16.50;82.60;;;;;;5103288;28;20816;-79
2023/09/26 10:01:46;;;;;;;10.03;7.67;;;16.60;82.60;;;;;;5089778;28;20479;-80
2023/09/26 10:04:15;;;;;;;13.40;8.90;;;16.70;82.60;;;;;;5085802;28;20481;-77
2023/09/26 10:06:44;;;;;;;11.33;7.80;;;16.70;82.70;;;;;;5070771;28;20521;-78
2023/09/26 10:09:14;;;;;;;12.33;8.80;;;16.80;82.70;;;;;;5089545;28;20456;-79
2023/09/26 10:11:45;;;;;;;13.57;7.93;;;16.80;82.80;;;;;;5088283;28;20535;-80
2023/09/26 10:14:20;;;;;;;11.90;8.63;;;16.90;82.80;;;;;;5088910;28;21009;-79
2023/09/26 10:16:49;;;;;;;14.33;8.70;;;17.00;82.70;;;;;;5088616;28;20445;-79
2023/09/26 10:19:25;;;;;;;11.40;7.67;;;17.10;82.60;;;;;;5081463;28;20547;-79
2023/09/26 10:22:15;;;;;;;10.50;8.57;;;17.20;82.60;;;;;;5087844;28;20899;-79
2023/09/26 10:24:48;;;;;;;10.70;8.00;;;17.20;82.60;;;;;;5088051;28;20484;-79
2023/09/26 10:27:39;;;;;;;14.47;8.37;;;17.30;82.60;;;;;;5088784;28;20488;-77
2023/09/26 10:30:28;;;;;;;10.43;7.57;;;17.40;82.60;;;;;;5087720;28;20463;-78
2023/09/26 10:32:57;;;;;;;12.40;7.53;;;17.40;82.40;;;;;;5084104;28;20453;-80
2023/09/26 10:35:28;;;;;;;10.10;7.70;;;17.50;82.40;;;;;;5083300;28;20473;-78
2023/09/26 10:38:03;;;;;;;10.93;8.03;;;17.60;82.40;;;;;;5086656;28;20931;-78
2023/09/26 10:40:31;;;;;;;10.40;7.67;;;17.60;82.40;;;;;;5072345;28;20795;-79
2023/09/26 10:43:02;;;;;;;12.53;8.13;;;17.70;82.40;;;;;;5089587;28;20906;-78
2023/09/26 10:45:33;;;;;;;11.37;7.57;;;17.70;82.40;;;;;;5083690;28;20537;-79
2023/09/26 10:48:05;;;;;;;13.30;7.67;;;17.80;82.30;;;;;;5085584;28;20444;-78
2023/09/26 10:50:53;;;;;;;9.00;7.00;;;17.90;82.20;;;;;;5070069;28;20494;-79
2023/09/26 10:53:21;;;;;;;10.77;7.80;;;17.90;82.30;;;;;;5078376;28;20792;-79
2023/09/26 10:55:50;;;;;;;13.63;8.43;;;18.00;82.30;;;;;;5081669;28;20479;-79
2023/09/26 10:58:23;;;;;;;8.50;6.93;;;18.00;82.30;;;;;;5084952;28;20777;-79
2023/09/26 11:00:52;;;;;;;11.47;7.77;;;18.10;82.10;;;;;;5075352;28;20472;-79
2023/09/26 11:03:21;;;;;;;10.60;8.00;;;18.20;82.20;;;;;;5087583;28;20464;-79
2023/09/26 11:05:50;;;;;;;10.90;7.53;;;18.30;82.10;;;;;;5099031;28;20452;-79
2023/09/26 11:08:19;;;;;;;11.07;7.00;;;18.30;81.80;;;;;;5086548;28;21087;-79
2023/09/26 11:11:10;;;;;;;10.23;6.93;;;18.40;81.60;;;;;;5084976;28;20452;-79
2023/09/26 11:13:40;;;;;;;9.00;7.00;;;18.40;81.50;;;;;;5087693;28;20448;-78
2023/09/26 11:16:08;;;;;;;8.63;6.43;;;18.40;81.50;;;;;;5091195;28;20530;-78
2023/09/26 11:18:36;;;;;;;8.53;6.53;;;18.50;81.50;;;;;;5087214;28;20456;-79
2023/09/26 11:21:06;;;;;;;13.47;6.40;;;18.50;81.50;;;;;;5088115;28;20456;-79
2023/09/26 11:23:56;;;;;;;7.70;5.70;;;18.60;81.40;;;;;;5086161;28;20507;-78
2023/09/26 11:26:24;;;;;;;12.13;5.23;;;18.70;81.20;;;;;;5089018;28;20456;-80
2023/09/26 11:28:54;;;;;;;9.97;5.93;;;18.80;80.90;;;;;;5095151;28;20457;-79
2023/09/26 11:31:24;;;;;;;8.43;5.50;;;18.90;80.40;;;;;;5103243;28;20459;-78
2023/09/26 11:33:52;;;;;;;10.93;5.97;;;18.90;80.20;;;;;;5112097;28;20497;-77
2023/09/26 11:36:20;;;;;;;12.77;6.30;;;19.00;80.00;;;;;;5112803;28;20463;-79
2023/09/26 11:38:49;;;;;;;9.20;6.43;;;19.00;79.80;;;;;;5094238;28;20973;-80
2023/09/26 11:41:19;;;;;;;9.53;6.17;;;19.10;80.00;;;;;;5086680;28;20458;-78
2023/09/26 11:43:55;;;;;;;9.53;5.93;;;19.20;80.00;;;;;;5089355;28;20463;-78
2023/09/26 11:46:24;;;;;;;10.47;6.20;;;19.20;80.00;;;;;;5112789;28;20475;-79
2023/09/26 11:48:52;;;;;;;11.37;6.10;;;19.30;79.90;;;;;;5094579;28;20480;-79
2023/09/26 11:51:20;;;;;;;12.53;5.97;;;19.30;79.90;;;;;;5106865;28;20533;-80
2023/09/26 11:53:51;;;;;;;14.13;6.70;;;19.40;79.70;;;;;;5091212;28;20456;-79
2023/09/26 11:56:26;;;;;;;10.13;6.20;;;19.40;79.40;;;;;;5109228;28;20803;-80
2023/09/26 11:58:56;;;;;;;8.27;5.60;;;19.50;79.20;;;;;;5108362;28;21165;-78
2023/09/26 12:01:24;;;;;;;7.97;5.63;;;19.50;79.10;;;;;;5097062;28;20877;-79
2023/09/26 12:03:55;;;;;;;9.13;5.00;;;19.60;78.90;;;;;;5086663;28;20457;-77
2023/09/26 12:06:24;;;;;;;9.60;4.80;;;19.60;78.70;;;;;;5071607;28;20523;-78
2023/09/26 12:08:52;;;;;;;6.90;4.73;;;19.70;78.50;;;;;;5070853;28;20457;-80
2023/09/26 12:11:20;;;;;;;8.30;4.77;;;19.70;78.10;;;;;;5091446;28;20540;-79
2023/09/26 12:13:48;;;;;;;10.40;4.93;;;19.80;77.70;;;;;;5089030;28;21013;-76
2023/09/26 12:16:17;;;;;;;10.10;4.87;;;19.80;77.40;;;;;;5094240;28;20551;-79
2023/09/26 12:18:45;;;;;;;9.63;4.30;;;19.90;77.30;;;;;;5091133;28;20445;-78
2023/09/26 12:21:13;;;;;;;7.53;4.80;;;19.90;77.30;;;;;;5091474;28;20469;-78
2023/09/26 12:23:41;;;;;;;7.97;5.17;;;20.00;77.00;;;;;;5075961;28;20534;-79
2023/09/26 12:26:09;;;;;;;10.80;5.00;;;20.00;76.60;;;;;;5088421;28;20975;-79
2023/09/26 12:28:37;;;;;;;7.53;4.43;;;20.10;76.10;;;;;;5085339;28;20452;-79
2023/09/26 12:31:05;;;;;;;9.90;4.67;;;20.20;75.90;;;;;;5088075;28;21183;-78
2023/09/26 12:33:34;;;;;;;9.50;5.17;;;20.20;75.60;;;;;;5086424;28;20540;-79
2023/09/26 12:36:02;;;;;;;9.30;5.00;;;20.20;75.20;;;;;;5082429;28;20551;-79
2023/09/26 12:38:30;;;;;;;9.17;4.27;;;20.30;75.00;;;;;;5091643;28;20458;-79
2023/09/26 12:40:59;;;;;;;8.27;4.60;;;20.30;75.10;;;;;;5088514;28;20555;-79
2023/09/26 12:43:27;;;;;;;9.50;4.30;;;20.40;74.70;;;;;;5088060;28;20544;-79
2023/09/26 12:45:55;;;;;;;8.47;4.10;;;20.40;74.40;;;;;;5089413;28;20985;-78
2023/09/26 12:48:24;;;;;;;7.30;3.97;;;20.50;74.20;;;;;;5089000;28;20465;-80
2023/09/26 12:50:53;;;;;;;6.93;4.10;;;20.50;73.90;;;;;;5091718;28;20963;-78